sensor_id;sensor_type;location;lat;lon;timestamp;temperature;humidity
22161;DHT22;49035;48.812;11.762;2024-03-02T00:00:51;5.80;99.90
22161;DHT22;49035;48.812;11.762;2024-03-02T00:03:18;5.60;99.90
22161;DHT22;49035;48.812;11.762;2024-03-02T00:05:49;5.50;99.90
22161;DHT22;49035;48.812;11.762;2024-03-02T00:08:23;5.70;99.90
22161;DHT22;49035;48.812;11.762;2024-03-02T00:10:49;5.60;99.90
22161;DHT22;49035;48.812;11.762;2024-03-02T00:13:15;5.50;99.90
22161;DHT22;49035;48.812;11.762;2024-03-02T00:18:18;5.50;99.90
22161;DHT22;49035;48.812;11.762;2024-03-02T00:20:44;5.60;99.90
22161;DHT22;49035;48.812;11.762;2024-03-02T00:23:16;5.70;99.90
22161;DHT22;49035;48.812;11.762;2024-03-02T00:25:50;5.60;99.90
22161;DHT22;49035;48.812;11.762;2024-03-02T00:28:34;5.70;99.90
22161;DHT22;49035;48.812;11.762;2024-03-02T00:31:10;5.60;99.90
22161;DHT22;49035;48.812;11.762;2024-03-02T00:33:44;5.60;99.90
22161;DHT22;49035;48.812;11.762;2024-03-02T00:36:13;5.50;99.90
22161;DHT22;49035;48.812;11.762;2024-03-02T00:38:53;5.60;99.90
22161;DHT22;49035;48.812;11.762;2024-03-02T00:44:04;5.60;99.90
22161;DHT22;49035;48.812;11.762;2024-03-02T00:46:35;5.60;99.90
22161;DHT22;49035;48.812;11.762;2024-03-02T00:49:03;5.70;99.90
22161;DHT22;49035;48.812;11.762;2024-03-02T00:51:33;5.70;99.90
22161;DHT22;49035;48.812;11.762;2024-03-02T00:54:04;5.80;99.90
22161;DHT22;49035;48.812;11.762;2024-03-02T00:56:31;6.00;99.90
22161;DHT22;49035;48.812;11.762;2024-03-02T00:58:57;5.70;99.90
22161;DHT22;49035;48.812;11.762;2024-03-02T01:01:23;5.70;99.90
22161;DHT22;49035;48.812;11.762;2024-03-02T01:03:49;5.70;99.90
22161;DHT22;49035;48.812;11.762;2024-03-02T01:06:16;6.10;99.90
22161;DHT22;49035;48.812;11.762;2024-03-02T01:08:42;5.70;99.90
22161;DHT22;49035;48.812;11.762;2024-03-02T01:11:08;6.00;99.90
22161;DHT22;49035;48.812;11.762;2024-03-02T01:13:34;5.50;99.90
22161;DHT22;49035;48.812;11.762;2024-03-02T01:16:00;5.50;99.90
22161;DHT22;49035;48.812;11.762;2024-03-02T01:18:25;5.60;99.90
22161;DHT22;49035;48.812;11.762;2024-03-02T01:20:51;5.70;99.90
22161;DHT22;49035;48.812;11.762;2024-03-02T01:23:18;5.80;99.90
22161;DHT22;49035;48.812;11.762;2024-03-02T01:25:45;6.00;99.90
22161;DHT22;49035;48.812;11.762;2024-03-02T01:28:11;5.90;99.90
22161;DHT22;49035;48.812;11.762;2024-03-02T01:30:37;5.70;99.90
22161;DHT22;49035;48.812;11.762;2024-03-02T01:33:03;5.60;99.90
22161;DHT22;49035;48.812;11.762;2024-03-02T01:35:31;5.70;99.90
22161;DHT22;49035;48.812;11.762;2024-03-02T01:37:56;5.60;99.90
22161;DHT22;49035;48.812;11.762;2024-03-02T01:40:22;5.80;99.90
22161;DHT22;49035;48.812;11.762;2024-03-02T01:42:52;5.40;99.90
22161;DHT22;49035;48.812;11.762;2024-03-02T01:45:18;5.30;99.90
22161;DHT22;49035;48.812;11.762;2024-03-02T01:47:43;5.30;99.90
22161;DHT22;49035;48.812;11.762;2024-03-02T01:50:11;5.20;99.90
22161;DHT22;49035;48.812;11.762;2024-03-02T01:52:37;5.30;99.90
22161;DHT22;49035;48.812;11.762;2024-03-02T01:55:03;5.40;99.90
22161;DHT22;49035;48.812;11.762;2024-03-02T01:57:29;5.40;99.90
22161;DHT22;49035;48.812;11.762;2024-03-02T01:59:55;5.50;99.90
22161;DHT22;49035;48.812;11.762;2024-03-02T02:02:21;5.30;99.90
22161;DHT22;49035;48.812;11.762;2024-03-02T02:04:47;5.60;99.90
22161;DHT22;49035;48.812;11.762;2024-03-02T02:07:13;6.10;99.90
22161;DHT22;49035;48.812;11.762;2024-03-02T02:09:43;5.90;99.90
22161;DHT22;49035;48.812;11.762;2024-03-02T02:12:09;6.00;99.90
22161;DHT22;49035;48.812;11.762;2024-03-02T02:14:35;5.90;99.90
22161;DHT22;49035;48.812;11.762;2024-03-02T02:17:01;5.80;99.90
22161;DHT22;49035;48.812;11.762;2024-03-02T02:19:27;5.60;99.90
22161;DHT22;49035;48.812;11.762;2024-03-02T02:21:52;5.70;99.90
22161;DHT22;49035;48.812;11.762;2024-03-02T02:24:18;5.80;99.90
22161;DHT22;49035;48.812;11.762;2024-03-02T02:26:44;5.80;99.90
22161;DHT22;49035;48.812;11.762;2024-03-02T02:29:09;5.80;99.90
22161;DHT22;49035;48.812;11.762;2024-03-02T02:31:41;5.60;99.90
22161;DHT22;49035;48.812;11.762;2024-03-02T02:34:07;5.70;99.90
22161;DHT22;49035;48.812;11.762;2024-03-02T02:36:36;5.50;99.90
22161;DHT22;49035;48.812;11.762;2024-03-02T02:39:03;5.70;99.90
22161;DHT22;49035;48.812;11.762;2024-03-02T02:41:30;5.40;99.90
22161;DHT22;49035;48.812;11.762;2024-03-02T02:43:56;5.50;99.90
22161;DHT22;49035;48.812;11.762;2024-03-02T02:46:21;5.50;99.90
22161;DHT22;49035;48.812;11.762;2024-03-02T02:48:47;5.40;99.90
22161;DHT22;49035;48.812;11.762;2024-03-02T02:51:12;5.80;99.90
22161;DHT22;49035;48.812;11.762;2024-03-02T02:53:38;5.50;99.90
22161;DHT22;49035;48.812;11.762;2024-03-02T02:56:06;5.40;99.90
22161;DHT22;49035;48.812;11.762;2024-03-02T02:58:32;5.30;99.90
22161;DHT22;49035;48.812;11.762;2024-03-02T03:00:57;5.30;99.90
22161;DHT22;49035;48.812;11.762;2024-03-02T03:03:23;5.40;99.90
22161;DHT22;49035;48.812;11.762;2024-03-02T03:05:49;5.40;99.90
22161;DHT22;49035;48.812;11.762;2024-03-02T03:08:14;5.40;99.90
22161;DHT22;49035;48.812;11.762;2024-03-02T03:10:41;5.60;99.90
22161;DHT22;49035;48.812;11.762;2024-03-02T03:13:07;6.00;99.90
22161;DHT22;49035;48.812;11.762;2024-03-02T03:15:35;5.90;99.90
22161;DHT22;49035;48.812;11.762;2024-03-02T03:18:04;5.50;99.90
22161;DHT22;49035;48.812;11.762;2024-03-02T03:20:30;5.70;99.90
22161;DHT22;49035;48.812;11.762;2024-03-02T03:22:57;5.70;99.90
22161;DHT22;49035;48.812;11.762;2024-03-02T03:25:22;5.50;99.90
22161;DHT22;49035;48.812;11.762;2024-03-02T03:27:48;5.70;99.90
22161;DHT22;49035;48.812;11.762;2024-03-02T03:30:14;5.60;99.90
22161;DHT22;49035;48.812;11.762;2024-03-02T03:32:40;5.70;99.90
22161;DHT22;49035;48.812;11.762;2024-03-02T03:35:06;5.60;99.90
22161;DHT22;49035;48.812;11.762;2024-03-02T03:37:32;5.50;99.90
22161;DHT22;49035;48.812;11.762;2024-03-02T03:39:59;5.50;99.90
22161;DHT22;49035;48.812;11.762;2024-03-02T03:42:25;5.50;99.90
22161;DHT22;49035;48.812;11.762;2024-03-02T03:44:51;5.50;99.90
22161;DHT22;49035;48.812;11.762;2024-03-02T03:47:17;5.50;99.90
22161;DHT22;49035;48.812;11.762;2024-03-02T03:49:42;5.50;99.90
22161;DHT22;49035;48.812;11.762;2024-03-02T03:52:08;5.40;99.90
22161;DHT22;49035;48.812;11.762;2024-03-02T03:54:33;5.30;99.90
22161;DHT22;49035;48.812;11.762;2024-03-02T03:56:59;5.40;99.90
22161;DHT22;49035;48.812;11.762;2024-03-02T03:59:25;5.30;99.90
22161;DHT22;49035;48.812;11.762;2024-03-02T04:01:50;5.30;99.90
22161;DHT22;49035;48.812;11.762;2024-03-02T04:04:16;5.20;99.90
22161;DHT22;49035;48.812;11.762;2024-03-02T04:06:42;5.30;99.90
22161;DHT22;49035;48.812;11.762;2024-03-02T04:09:08;5.10;99.90
22161;DHT22;49035;48.812;11.762;2024-03-02T04:11:33;5.20;99.90
22161;DHT22;49035;48.812;11.762;2024-03-02T04:13:59;5.20;99.90
22161;DHT22;49035;48.812;11.762;2024-03-02T04:16:24;5.10;99.90
22161;DHT22;49035;48.812;11.762;2024-03-02T04:18:50;5.20;99.90
22161;DHT22;49035;48.812;11.762;2024-03-02T04:21:16;5.40;99.90
22161;DHT22;49035;48.812;11.762;2024-03-02T04:23:41;5.30;99.90
22161;DHT22;49035;48.812;11.762;2024-03-02T04:26:07;5.30;99.90
22161;DHT22;49035;48.812;11.762;2024-03-02T04:28:32;5.50;99.90
22161;DHT22;49035;48.812;11.762;2024-03-02T04:30:58;5.40;99.90
22161;DHT22;49035;48.812;11.762;2024-03-02T04:33:23;5.30;99.90
22161;DHT22;49035;48.812;11.762;2024-03-02T04:35:49;5.30;99.90
22161;DHT22;49035;48.812;11.762;2024-03-02T04:38:15;5.20;99.90
22161;DHT22;49035;48.812;11.762;2024-03-02T04:40:40;5.20;99.90
22161;DHT22;49035;48.812;11.762;2024-03-02T04:43:06;5.10;99.90
22161;DHT22;49035;48.812;11.762;2024-03-02T04:45:33;5.10;99.90
22161;DHT22;49035;48.812;11.762;2024-03-02T04:47:59;5.20;99.90
22161;DHT22;49035;48.812;11.762;2024-03-02T04:50:25;5.10;99.90
22161;DHT22;49035;48.812;11.762;2024-03-02T04:52:50;5.00;99.90
22161;DHT22;49035;48.812;11.762;2024-03-02T04:55:16;5.00;99.90
22161;DHT22;49035;48.812;11.762;2024-03-02T04:57:41;5.00;99.90
22161;DHT22;49035;48.812;11.762;2024-03-02T05:00:07;4.90;99.90
22161;DHT22;49035;48.812;11.762;2024-03-02T05:02:34;5.00;99.90
22161;DHT22;49035;48.812;11.762;2024-03-02T05:05:00;4.90;99.90
22161;DHT22;49035;48.812;11.762;2024-03-02T05:07:27;4.90;99.90
22161;DHT22;49035;48.812;11.762;2024-03-02T05:09:52;5.10;99.90
22161;DHT22;49035;48.812;11.762;2024-03-02T05:12:18;5.00;99.90
22161;DHT22;49035;48.812;11.762;2024-03-02T05:14:56;5.00;99.90
22161;DHT22;49035;48.812;11.762;2024-03-02T05:17:22;4.80;99.90
22161;DHT22;49035;48.812;11.762;2024-03-02T05:19:47;5.20;99.90
22161;DHT22;49035;48.812;11.762;2024-03-02T05:22:13;4.90;99.90
22161;DHT22;49035;48.812;11.762;2024-03-02T05:24:39;5.00;99.90
22161;DHT22;49035;48.812;11.762;2024-03-02T05:27:04;5.10;99.90
22161;DHT22;49035;48.812;11.762;2024-03-02T05:29:31;5.20;99.90
22161;DHT22;49035;48.812;11.762;2024-03-02T05:31:57;4.90;99.90
22161;DHT22;49035;48.812;11.762;2024-03-02T05:34:22;5.00;99.90
22161;DHT22;49035;48.812;11.762;2024-03-02T05:36:48;5.00;99.90
22161;DHT22;49035;48.812;11.762;2024-03-02T05:39:13;5.10;99.90
22161;DHT22;49035;48.812;11.762;2024-03-02T05:41:39;5.10;99.90
22161;DHT22;49035;48.812;11.762;2024-03-02T05:44:05;5.20;99.90
22161;DHT22;49035;48.812;11.762;2024-03-02T05:46:30;5.20;99.90
22161;DHT22;49035;48.812;11.762;2024-03-02T05:48:56;5.10;99.90
22161;DHT22;49035;48.812;11.762;2024-03-02T05:51:21;5.10;99.90
22161;DHT22;49035;48.812;11.762;2024-03-02T05:53:47;5.10;99.90
22161;DHT22;49035;48.812;11.762;2024-03-02T05:56:13;5.10;99.90
22161;DHT22;49035;48.812;11.762;2024-03-02T05:58:38;5.00;99.90
22161;DHT22;49035;48.812;11.762;2024-03-02T06:01:22;5.40;99.90
22161;DHT22;49035;48.812;11.762;2024-03-02T06:03:56;5.10;99.90
22161;DHT22;49035;48.812;11.762;2024-03-02T06:06:25;5.10;99.90
22161;DHT22;49035;48.812;11.762;2024-03-02T06:08:51;5.00;99.90
22161;DHT22;49035;48.812;11.762;2024-03-02T06:11:17;5.10;99.90
22161;DHT22;49035;48.812;11.762;2024-03-02T06:13:44;5.10;99.90
22161;DHT22;49035;48.812;11.762;2024-03-02T06:16:10;5.10;99.90
22161;DHT22;49035;48.812;11.762;2024-03-02T06:18:36;5.20;99.90
22161;DHT22;49035;48.812;11.762;2024-03-02T06:21:01;5.10;99.90
22161;DHT22;49035;48.812;11.762;2024-03-02T06:23:27;5.20;99.90
22161;DHT22;49035;48.812;11.762;2024-03-02T06:25:53;5.20;99.90
22161;DHT22;49035;48.812;11.762;2024-03-02T06:28:18;5.10;99.90
22161;DHT22;49035;48.812;11.762;2024-03-02T06:30:44;5.10;99.90
22161;DHT22;49035;48.812;11.762;2024-03-02T06:33:10;5.20;99.90
22161;DHT22;49035;48.812;11.762;2024-03-02T06:35:36;5.40;99.90
22161;DHT22;49035;48.812;11.762;2024-03-02T06:38:01;5.50;99.90
22161;DHT22;49035;48.812;11.762;2024-03-02T06:40:27;5.50;99.90
22161;DHT22;49035;48.812;11.762;2024-03-02T06:42:53;5.60;99.90
22161;DHT22;49035;48.812;11.762;2024-03-02T06:45:19;5.70;99.90
22161;DHT22;49035;48.812;11.762;2024-03-02T06:47:44;5.80;99.90
22161;DHT22;49035;48.812;11.762;2024-03-02T06:50:10;5.90;99.90
22161;DHT22;49035;48.812;11.762;2024-03-02T06:52:35;5.90;99.90
22161;DHT22;49035;48.812;11.762;2024-03-02T06:55:02;5.90;99.90
22161;DHT22;49035;48.812;11.762;2024-03-02T06:57:27;6.10;99.90
22161;DHT22;49035;48.812;11.762;2024-03-02T06:59:53;6.20;99.90
22161;DHT22;49035;48.812;11.762;2024-03-02T07:02:20;6.30;99.90
22161;DHT22;49035;48.812;11.762;2024-03-02T07:04:46;6.30;99.90
22161;DHT22;49035;48.812;11.762;2024-03-02T07:07:12;6.30;99.90
22161;DHT22;49035;48.812;11.762;2024-03-02T07:09:38;6.20;99.90
22161;DHT22;49035;48.812;11.762;2024-03-02T07:12:03;6.30;99.90
22161;DHT22;49035;48.812;11.762;2024-03-02T07:14:29;6.40;99.90
22161;DHT22;49035;48.812;11.762;2024-03-02T07:17:18;6.40;99.90
22161;DHT22;49035;48.812;11.762;2024-03-02T07:19:43;6.50;99.90
22161;DHT22;49035;48.812;11.762;2024-03-02T07:22:09;6.50;99.90
22161;DHT22;49035;48.812;11.762;2024-03-02T07:24:42;6.60;99.90
22161;DHT22;49035;48.812;11.762;2024-03-02T07:27:12;6.50;99.90
22161;DHT22;49035;48.812;11.762;2024-03-02T07:29:38;6.60;99.90
22161;DHT22;49035;48.812;11.762;2024-03-02T07:32:05;7.00;99.90
22161;DHT22;49035;48.812;11.762;2024-03-02T07:34:31;6.70;99.90
22161;DHT22;49035;48.812;11.762;2024-03-02T07:36:57;7.00;99.90
22161;DHT22;49035;48.812;11.762;2024-03-02T07:39:23;6.90;99.90
22161;DHT22;49035;48.812;11.762;2024-03-02T07:41:49;7.30;99.90
22161;DHT22;49035;48.812;11.762;2024-03-02T07:44:14;7.30;99.90
22161;DHT22;49035;48.812;11.762;2024-03-02T07:46:41;7.40;99.90
22161;DHT22;49035;48.812;11.762;2024-03-02T07:49:08;7.20;99.90
22161;DHT22;49035;48.812;11.762;2024-03-02T07:51:34;7.20;99.90
22161;DHT22;49035;48.812;11.762;2024-03-02T07:53:59;7.20;99.90
22161;DHT22;49035;48.812;11.762;2024-03-02T07:56:25;7.10;99.90
22161;DHT22;49035;48.812;11.762;2024-03-02T07:58:51;7.00;99.90
22161;DHT22;49035;48.812;11.762;2024-03-02T08:01:16;7.50;99.90
22161;DHT22;49035;48.812;11.762;2024-03-02T08:03:43;7.20;99.90
22161;DHT22;49035;48.812;11.762;2024-03-02T08:06:14;7.50;99.90
22161;DHT22;49035;48.812;11.762;2024-03-02T08:08:40;7.30;99.90
22161;DHT22;49035;48.812;11.762;2024-03-02T08:11:06;7.50;99.90
22161;DHT22;49035;48.812;11.762;2024-03-02T08:13:32;7.20;99.90
22161;DHT22;49035;48.812;11.762;2024-03-02T08:15:57;7.20;99.90
22161;DHT22;49035;48.812;11.762;2024-03-02T08:18:23;7.70;99.90
22161;DHT22;49035;48.812;11.762;2024-03-02T08:20:49;7.70;99.90
22161;DHT22;49035;48.812;11.762;2024-03-02T08:23:15;7.90;99.90
22161;DHT22;49035;48.812;11.762;2024-03-02T08:25:41;8.00;99.90
22161;DHT22;49035;48.812;11.762;2024-03-02T08:28:07;7.70;99.90
22161;DHT22;49035;48.812;11.762;2024-03-02T08:30:32;8.00;99.90
22161;DHT22;49035;48.812;11.762;2024-03-02T08:32:58;8.10;99.90
22161;DHT22;49035;48.812;11.762;2024-03-02T08:35:23;8.20;99.90
22161;DHT22;49035;48.812;11.762;2024-03-02T08:37:49;8.30;99.90
22161;DHT22;49035;48.812;11.762;2024-03-02T08:40:15;7.90;99.90
22161;DHT22;49035;48.812;11.762;2024-03-02T08:42:41;8.10;99.90
22161;DHT22;49035;48.812;11.762;2024-03-02T08:45:07;8.30;99.90
22161;DHT22;49035;48.812;11.762;2024-03-02T08:47:33;8.40;99.90
22161;DHT22;49035;48.812;11.762;2024-03-02T08:49:59;8.50;99.90
22161;DHT22;49035;48.812;11.762;2024-03-02T08:52:26;8.50;99.90
22161;DHT22;49035;48.812;11.762;2024-03-02T08:54:52;8.80;99.90
22161;DHT22;49035;48.812;11.762;2024-03-02T08:57:18;8.70;99.90
22161;DHT22;49035;48.812;11.762;2024-03-02T08:59:44;8.50;99.90
22161;DHT22;49035;48.812;11.762;2024-03-02T09:02:10;8.40;99.90
22161;DHT22;49035;48.812;11.762;2024-03-02T09:04:36;8.50;99.90
22161;DHT22;49035;48.812;11.762;2024-03-02T09:07:01;8.90;99.90
22161;DHT22;49035;48.812;11.762;2024-03-02T09:09:27;9.20;99.90
22161;DHT22;49035;48.812;11.762;2024-03-02T09:11:53;9.20;99.90
22161;DHT22;49035;48.812;11.762;2024-03-02T09:14:20;9.20;99.90
22161;DHT22;49035;48.812;11.762;2024-03-02T09:16:46;9.40;99.90
22161;DHT22;49035;48.812;11.762;2024-03-02T09:19:12;9.70;99.90
22161;DHT22;49035;48.812;11.762;2024-03-02T09:21:37;9.70;99.90
22161;DHT22;49035;48.812;11.762;2024-03-02T09:24:06;9.20;99.90
22161;DHT22;49035;48.812;11.762;2024-03-02T09:26:32;9.00;99.90
22161;DHT22;49035;48.812;11.762;2024-03-02T09:28:58;9.20;99.90
22161;DHT22;49035;48.812;11.762;2024-03-02T09:31:23;9.00;99.90
22161;DHT22;49035;48.812;11.762;2024-03-02T09:33:49;9.40;99.90
22161;DHT22;49035;48.812;11.762;2024-03-02T09:36:21;9.50;99.90
22161;DHT22;49035;48.812;11.762;2024-03-02T09:38:48;9.30;99.90
22161;DHT22;49035;48.812;11.762;2024-03-02T09:41:14;9.30;99.90
22161;DHT22;49035;48.812;11.762;2024-03-02T09:43:40;9.40;99.90
22161;DHT22;49035;48.812;11.762;2024-03-02T09:46:09;9.20;99.90
22161;DHT22;49035;48.812;11.762;2024-03-02T09:48:35;9.80;99.90
22161;DHT22;49035;48.812;11.762;2024-03-02T09:51:01;10.30;99.90
22161;DHT22;49035;48.812;11.762;2024-03-02T09:53:32;10.30;99.90
22161;DHT22;49035;48.812;11.762;2024-03-02T09:55:59;10.30;99.90
22161;DHT22;49035;48.812;11.762;2024-03-02T09:58:36;10.70;99.90
22161;DHT22;49035;48.812;11.762;2024-03-02T10:01:01;10.80;99.90
22161;DHT22;49035;48.812;11.762;2024-03-02T10:03:30;11.10;99.90
22161;DHT22;49035;48.812;11.762;2024-03-02T10:06:19;11.30;99.90
22161;DHT22;49035;48.812;11.762;2024-03-02T10:08:45;11.30;99.90
22161;DHT22;49035;48.812;11.762;2024-03-02T10:11:11;11.50;99.90
22161;DHT22;49035;48.812;11.762;2024-03-02T10:13:37;11.90;99.90
22161;DHT22;49035;48.812;11.762;2024-03-02T10:16:12;11.70;99.90
22161;DHT22;49035;48.812;11.762;2024-03-02T10:18:37;11.50;99.90
22161;DHT22;49035;48.812;11.762;2024-03-02T10:21:15;11.50;99.90
22161;DHT22;49035;48.812;11.762;2024-03-02T10:23:41;11.70;99.90
22161;DHT22;49035;48.812;11.762;2024-03-02T10:26:19;11.70;99.90
22161;DHT22;49035;48.812;11.762;2024-03-02T10:28:47;11.30;99.90
22161;DHT22;49035;48.812;11.762;2024-03-02T10:31:13;11.40;99.90
22161;DHT22;49035;48.812;11.762;2024-03-02T10:33:40;11.60;99.90
22161;DHT22;49035;48.812;11.762;2024-03-02T10:36:05;12.00;99.90
22161;DHT22;49035;48.812;11.762;2024-03-02T10:38:31;12.00;99.90
22161;DHT22;49035;48.812;11.762;2024-03-02T10:40:58;12.20;99.90
22161;DHT22;49035;48.812;11.762;2024-03-02T10:43:25;12.20;99.90
22161;DHT22;49035;48.812;11.762;2024-03-02T10:45:52;12.40;99.90
22161;DHT22;49035;48.812;11.762;2024-03-02T10:48:19;12.20;99.90
22161;DHT22;49035;48.812;11.762;2024-03-02T10:50:46;12.20;99.90
22161;DHT22;49035;48.812;11.762;2024-03-02T10:53:12;12.20;99.90
22161;DHT22;49035;48.812;11.762;2024-03-02T10:55:38;12.10;99.90
22161;DHT22;49035;48.812;11.762;2024-03-02T10:58:04;11.90;99.90
22161;DHT22;49035;48.812;11.762;2024-03-02T11:00:33;11.70;99.90
22161;DHT22;49035;48.812;11.762;2024-03-02T11:03:09;11.80;99.90
22161;DHT22;49035;48.812;11.762;2024-03-02T11:05:38;11.30;99.90
22161;DHT22;49035;48.812;11.762;2024-03-02T11:08:07;11.20;99.90
22161;DHT22;49035;48.812;11.762;2024-03-02T11:10:35;11.30;99.90
22161;DHT22;49035;48.812;11.762;2024-03-02T11:13:11;11.80;99.90
22161;DHT22;49035;48.812;11.762;2024-03-02T11:15:37;12.20;99.90
22161;DHT22;49035;48.812;11.762;2024-03-02T11:18:05;12.50;99.90
22161;DHT22;49035;48.812;11.762;2024-03-02T11:20:36;12.30;99.90
22161;DHT22;49035;48.812;11.762;2024-03-02T11:23:08;12.20;99.90
22161;DHT22;49035;48.812;11.762;2024-03-02T11:25:33;11.80;99.90
22161;DHT22;49035;48.812;11.762;2024-03-02T11:28:01;11.60;99.90
22161;DHT22;49035;48.812;11.762;2024-03-02T11:33:03;11.20;99.90
22161;DHT22;49035;48.812;11.762;2024-03-02T11:35:43;11.30;99.90
22161;DHT22;49035;48.812;11.762;2024-03-02T11:38:09;11.50;99.90
22161;DHT22;49035;48.812;11.762;2024-03-02T11:40:35;11.70;99.90
22161;DHT22;49035;48.812;11.762;2024-03-02T11:43:01;11.80;99.90
22161;DHT22;49035;48.812;11.762;2024-03-02T11:45:28;11.80;99.90
22161;DHT22;49035;48.812;11.762;2024-03-02T11:47:55;11.80;99.90
22161;DHT22;49035;48.812;11.762;2024-03-02T11:50:30;11.80;99.90
22161;DHT22;49035;48.812;11.762;2024-03-02T11:52:58;11.80;99.90
22161;DHT22;49035;48.812;11.762;2024-03-02T11:55:28;11.90;99.90
22161;DHT22;49035;48.812;11.762;2024-03-02T11:57:56;11.80;99.90
22161;DHT22;49035;48.812;11.762;2024-03-02T12:00:22;11.60;99.90
22161;DHT22;49035;48.812;11.762;2024-03-02T12:03:10;11.10;99.90
22161;DHT22;49035;48.812;11.762;2024-03-02T12:05:37;11.00;99.90
22161;DHT22;49035;48.812;11.762;2024-03-02T12:08:04;11.10;99.90
22161;DHT22;49035;48.812;11.762;2024-03-02T12:10:32;11.30;99.90
22161;DHT22;49035;48.812;11.762;2024-03-02T12:13:05;11.60;99.90
22161;DHT22;49035;48.812;11.762;2024-03-02T12:15:37;11.50;99.90
22161;DHT22;49035;48.812;11.762;2024-03-02T12:18:04;12.00;99.90
22161;DHT22;49035;48.812;11.762;2024-03-02T12:20:32;11.70;99.90
22161;DHT22;49035;48.812;11.762;2024-03-02T12:23:02;12.30;99.90
22161;DHT22;49035;48.812;11.762;2024-03-02T12:25:31;11.60;99.90
22161;DHT22;49035;48.812;11.762;2024-03-02T12:27:59;11.40;99.90
22161;DHT22;49035;48.812;11.762;2024-03-02T12:30:27;11.60;99.90
22161;DHT22;49035;48.812;11.762;2024-03-02T12:32:54;12.00;99.90
22161;DHT22;49035;48.812;11.762;2024-03-02T12:35:20;12.00;99.90
22161;DHT22;49035;48.812;11.762;2024-03-02T12:37:51;11.90;99.90
22161;DHT22;49035;48.812;11.762;2024-03-02T12:40:19;11.90;99.90
22161;DHT22;49035;48.812;11.762;2024-03-02T12:42:48;12.10;99.90
22161;DHT22;49035;48.812;11.762;2024-03-02T12:45:15;12.20;99.90
22161;DHT22;49035;48.812;11.762;2024-03-02T12:47:41;12.30;99.90
22161;DHT22;49035;48.812;11.762;2024-03-02T12:50:08;12.80;99.90
22161;DHT22;49035;48.812;11.762;2024-03-02T12:52:34;12.80;99.90
22161;DHT22;49035;48.812;11.762;2024-03-02T12:55:03;12.60;99.90
22161;DHT22;49035;48.812;11.762;2024-03-02T12:57:31;12.40;99.90
22161;DHT22;49035;48.812;11.762;2024-03-02T12:59:58;12.40;99.90
22161;DHT22;49035;48.812;11.762;2024-03-02T13:02:28;12.60;99.90
22161;DHT22;49035;48.812;11.762;2024-03-02T13:04:54;12.90;99.90
22161;DHT22;49035;48.812;11.762;2024-03-02T13:07:20;12.90;99.90
22161;DHT22;49035;48.812;11.762;2024-03-02T13:09:48;12.60;99.90
22161;DHT22;49035;48.812;11.762;2024-03-02T13:12:16;12.40;99.90
22161;DHT22;49035;48.812;11.762;2024-03-02T13:14:42;12.60;99.90
22161;DHT22;49035;48.812;11.762;2024-03-02T13:17:11;13.00;99.90
22161;DHT22;49035;48.812;11.762;2024-03-02T13:20:00;13.40;99.90
22161;DHT22;49035;48.812;11.762;2024-03-02T13:22:26;13.40;99.90
22161;DHT22;49035;48.812;11.762;2024-03-02T13:24:52;13.60;99.90
22161;DHT22;49035;48.812;11.762;2024-03-02T13:27:20;13.90;99.90
22161;DHT22;49035;48.812;11.762;2024-03-02T13:29:46;13.20;99.90
22161;DHT22;49035;48.812;11.762;2024-03-02T13:32:13;12.90;99.90
22161;DHT22;49035;48.812;11.762;2024-03-02T13:34:39;12.70;99.90
22161;DHT22;49035;48.812;11.762;2024-03-02T13:37:05;12.30;99.90
22161;DHT22;49035;48.812;11.762;2024-03-02T13:39:33;12.10;99.90
22161;DHT22;49035;48.812;11.762;2024-03-02T13:42:08;12.40;99.90
22161;DHT22;49035;48.812;11.762;2024-03-02T13:44:34;12.10;99.90
22161;DHT22;49035;48.812;11.762;2024-03-02T13:47:00;12.50;99.90
22161;DHT22;49035;48.812;11.762;2024-03-02T13:49:26;12.90;99.90
22161;DHT22;49035;48.812;11.762;2024-03-02T13:51:59;13.20;99.90
22161;DHT22;49035;48.812;11.762;2024-03-02T13:54:26;13.20;99.90
22161;DHT22;49035;48.812;11.762;2024-03-02T13:56:52;12.90;99.90
22161;DHT22;49035;48.812;11.762;2024-03-02T13:59:17;12.60;99.90
22161;DHT22;49035;48.812;11.762;2024-03-02T14:01:44;11.90;99.90
22161;DHT22;49035;48.812;11.762;2024-03-02T14:04:10;11.40;99.90
22161;DHT22;49035;48.812;11.762;2024-03-02T14:06:35;11.50;99.90
22161;DHT22;49035;48.812;11.762;2024-03-02T14:09:01;11.50;99.90
22161;DHT22;49035;48.812;11.762;2024-03-02T14:11:26;11.40;99.90
22161;DHT22;49035;48.812;11.762;2024-03-02T14:13:55;11.50;99.90
22161;DHT22;49035;48.812;11.762;2024-03-02T14:16:22;11.70;99.90
22161;DHT22;49035;48.812;11.762;2024-03-02T14:18:48;11.80;99.90
22161;DHT22;49035;48.812;11.762;2024-03-02T14:21:13;11.80;99.90
22161;DHT22;49035;48.812;11.762;2024-03-02T14:23:39;11.90;99.90
22161;DHT22;49035;48.812;11.762;2024-03-02T14:26:06;11.60;99.90
22161;DHT22;49035;48.812;11.762;2024-03-02T14:28:31;11.60;99.90
22161;DHT22;49035;48.812;11.762;2024-03-02T14:30:57;11.60;99.90
22161;DHT22;49035;48.812;11.762;2024-03-02T14:33:22;11.60;99.90
22161;DHT22;49035;48.812;11.762;2024-03-02T14:35:48;11.40;99.90
22161;DHT22;49035;48.812;11.762;2024-03-02T14:38:14;11.50;99.90
22161;DHT22;49035;48.812;11.762;2024-03-02T14:40:39;11.40;99.90
22161;DHT22;49035;48.812;11.762;2024-03-02T14:43:05;11.30;99.90
22161;DHT22;49035;48.812;11.762;2024-03-02T14:45:30;11.30;99.90
22161;DHT22;49035;48.812;11.762;2024-03-02T14:47:56;11.50;99.90
22161;DHT22;49035;48.812;11.762;2024-03-02T14:50:28;11.70;99.90
22161;DHT22;49035;48.812;11.762;2024-03-02T14:52:54;11.40;99.90
22161;DHT22;49035;48.812;11.762;2024-03-02T14:55:24;10.90;99.90
22161;DHT22;49035;48.812;11.762;2024-03-02T14:57:50;10.90;99.90
22161;DHT22;49035;48.812;11.762;2024-03-02T15:00:16;11.20;99.90
22161;DHT22;49035;48.812;11.762;2024-03-02T15:02:41;10.70;99.90
22161;DHT22;49035;48.812;11.762;2024-03-02T15:05:07;10.60;99.90
22161;DHT22;49035;48.812;11.762;2024-03-02T15:07:33;10.50;99.90
22161;DHT22;49035;48.812;11.762;2024-03-02T15:09:58;10.40;99.90
22161;DHT22;49035;48.812;11.762;2024-03-02T15:12:24;10.50;99.90
22161;DHT22;49035;48.812;11.762;2024-03-02T15:14:50;10.30;99.90
22161;DHT22;49035;48.812;11.762;2024-03-02T15:17:16;10.30;99.90
22161;DHT22;49035;48.812;11.762;2024-03-02T15:19:45;10.20;99.90
22161;DHT22;49035;48.812;11.762;2024-03-02T15:22:11;10.20;99.90
22161;DHT22;49035;48.812;11.762;2024-03-02T15:24:37;10.30;99.90
22161;DHT22;49035;48.812;11.762;2024-03-02T15:27:04;10.20;99.90
22161;DHT22;49035;48.812;11.762;2024-03-02T15:29:31;10.30;99.90
22161;DHT22;49035;48.812;11.762;2024-03-02T15:31:58;10.30;99.90